sensor_id;sensor_type;location;lat;lon;timestamp;P1;durP1;ratioP1;P2;durP2;ratioP2
80675;SDS011;70041;46.088;18.268;2024-01-25T00:00:51;12.97;;;7.37;;
80675;SDS011;70041;46.088;18.268;2024-01-25T00:03:16;17.38;;;9.02;;
80675;SDS011;70041;46.088;18.268;2024-01-25T00:05:43;17.63;;;8.20;;
80675;SDS011;70041;46.088;18.268;2024-01-25T00:08:08;19.35;;;9.13;;
80675;SDS011;70041;46.088;18.268;2024-01-25T00:10:34;23.77;;;9.90;;
80675;SDS011;70041;46.088;18.268;2024-01-25T00:12:59;20.37;;;9.63;;
80675;SDS011;70041;46.088;18.268;2024-01-25T00:15:24;23.37;;;10.17;;
80675;SDS011;70041;46.088;18.268;2024-01-25T00:17:50;21.97;;;11.87;;
80675;SDS011;70041;46.088;18.268;2024-01-25T00:20:15;23.10;;;10.90;;
80675;SDS011;70041;46.088;18.268;2024-01-25T00:22:41;20.92;;;10.32;;
80675;SDS011;70041;46.088;18.268;2024-01-25T00:25:06;24.13;;;10.60;;
80675;SDS011;70041;46.088;18.268;2024-01-25T00:27:32;22.75;;;10.20;;
80675;SDS011;70041;46.088;18.268;2024-01-25T00:29:58;19.57;;;9.43;;
80675;SDS011;70041;46.088;18.268;2024-01-25T00:32:23;21.20;;;9.03;;
80675;SDS011;70041;46.088;18.268;2024-01-25T00:34:48;19.80;;;9.07;;
80675;SDS011;70041;46.088;18.268;2024-01-25T00:37:14;17.23;;;8.55;;
80675;SDS011;70041;46.088;18.268;2024-01-25T00:39:40;17.27;;;8.60;;
80675;SDS011;70041;46.088;18.268;2024-01-25T00:42:06;17.73;;;8.20;;
80675;SDS011;70041;46.088;18.268;2024-01-25T00:44:32;18.60;;;8.63;;
80675;SDS011;70041;46.088;18.268;2024-01-25T00:46:58;15.87;;;8.43;;
80675;SDS011;70041;46.088;18.268;2024-01-25T00:49:24;17.58;;;9.27;;
80675;SDS011;70041;46.088;18.268;2024-01-25T00:51:50;21.42;;;9.50;;
80675;SDS011;70041;46.088;18.268;2024-01-25T00:54:23;17.70;;;8.52;;
80675;SDS011;70041;46.088;18.268;2024-01-25T00:56:49;17.43;;;7.93;;
80675;SDS011;70041;46.088;18.268;2024-01-25T00:59:17;19.15;;;9.48;;
80675;SDS011;70041;46.088;18.268;2024-01-25T01:01:43;21.23;;;9.30;;
80675;SDS011;70041;46.088;18.268;2024-01-25T01:04:11;22.42;;;10.80;;
80675;SDS011;70041;46.088;18.268;2024-01-25T01:06:37;20.53;;;10.50;;
80675;SDS011;70041;46.088;18.268;2024-01-25T01:09:03;22.85;;;9.82;;
80675;SDS011;70041;46.088;18.268;2024-01-25T01:11:29;18.47;;;9.67;;
80675;SDS011;70041;46.088;18.268;2024-01-25T01:13:55;21.80;;;10.15;;
80675;SDS011;70041;46.088;18.268;2024-01-25T01:16:20;20.03;;;10.53;;
80675;SDS011;70041;46.088;18.268;2024-01-25T01:18:46;20.23;;;9.53;;
80675;SDS011;70041;46.088;18.268;2024-01-25T01:21:11;18.45;;;9.70;;
80675;SDS011;70041;46.088;18.268;2024-01-25T01:23:37;18.70;;;9.63;;
80675;SDS011;70041;46.088;18.268;2024-01-25T01:26:03;21.50;;;9.77;;
80675;SDS011;70041;46.088;18.268;2024-01-25T01:28:29;19.83;;;10.63;;
80675;SDS011;70041;46.088;18.268;2024-01-25T01:30:54;25.47;;;10.97;;
80675;SDS011;70041;46.088;18.268;2024-01-25T01:33:20;17.90;;;9.27;;
80675;SDS011;70041;46.088;18.268;2024-01-25T01:35:45;22.90;;;9.48;;
80675;SDS011;70041;46.088;18.268;2024-01-25T01:38:11;19.83;;;9.73;;
80675;SDS011;70041;46.088;18.268;2024-01-25T01:40:36;18.60;;;9.17;;
80675;SDS011;70041;46.088;18.268;2024-01-25T01:43:02;19.10;;;9.47;;
80675;SDS011;70041;46.088;18.268;2024-01-25T01:45:28;16.75;;;9.15;;
80675;SDS011;70041;46.088;18.268;2024-01-25T01:47:54;21.88;;;9.40;;
80675;SDS011;70041;46.088;18.268;2024-01-25T01:50:21;16.38;;;9.32;;
80675;SDS011;70041;46.088;18.268;2024-01-25T01:52:46;18.10;;;8.97;;
80675;SDS011;70041;46.088;18.268;2024-01-25T01:55:14;23.48;;;8.57;;
80675;SDS011;70041;46.088;18.268;2024-01-25T01:57:40;15.52;;;8.52;;
80675;SDS011;70041;46.088;18.268;2024-01-25T02:00:07;15.03;;;9.67;;
80675;SDS011;70041;46.088;18.268;2024-01-25T02:02:34;18.80;;;9.13;;
80675;SDS011;70041;46.088;18.268;2024-01-25T02:05:00;19.98;;;9.82;;
80675;SDS011;70041;46.088;18.268;2024-01-25T02:07:26;18.30;;;9.80;;
80675;SDS011;70041;46.088;18.268;2024-01-25T02:09:51;22.40;;;9.38;;
80675;SDS011;70041;46.088;18.268;2024-01-25T02:12:17;22.57;;;9.93;;
80675;SDS011;70041;46.088;18.268;2024-01-25T02:14:43;20.40;;;10.20;;
80675;SDS011;70041;46.088;18.268;2024-01-25T02:17:08;17.33;;;9.35;;
80675;SDS011;70041;46.088;18.268;2024-01-25T02:19:34;18.67;;;9.60;;
80675;SDS011;70041;46.088;18.268;2024-01-25T02:21:59;24.40;;;11.30;;
80675;SDS011;70041;46.088;18.268;2024-01-25T02:24:26;22.02;;;10.50;;
80675;SDS011;70041;46.088;18.268;2024-01-25T02:26:51;20.53;;;10.40;;
80675;SDS011;70041;46.088;18.268;2024-01-25T02:29:16;24.33;;;11.03;;
80675;SDS011;70041;46.088;18.268;2024-01-25T02:31:42;19.77;;;10.07;;
80675;SDS011;70041;46.088;18.268;2024-01-25T02:34:07;18.30;;;10.23;;
80675;SDS011;70041;46.088;18.268;2024-01-25T02:36:33;16.33;;;8.97;;
80675;SDS011;70041;46.088;18.268;2024-01-25T02:38:58;20.67;;;9.43;;
80675;SDS011;70041;46.088;18.268;2024-01-25T02:41:23;20.73;;;9.77;;
80675;SDS011;70041;46.088;18.268;2024-01-25T02:43:49;17.70;;;9.13;;
80675;SDS011;70041;46.088;18.268;2024-01-25T02:46:14;22.42;;;9.55;;
80675;SDS011;70041;46.088;18.268;2024-01-25T02:48:39;17.67;;;9.27;;
80675;SDS011;70041;46.088;18.268;2024-01-25T02:51:05;17.03;;;9.83;;
80675;SDS011;70041;46.088;18.268;2024-01-25T02:53:30;19.63;;;10.10;;
80675;SDS011;70041;46.088;18.268;2024-01-25T02:55:56;16.13;;;9.30;;
80675;SDS011;70041;46.088;18.268;2024-01-25T02:58:21;19.17;;;10.63;;
80675;SDS011;70041;46.088;18.268;2024-01-25T03:00:47;20.40;;;10.90;;
80675;SDS011;70041;46.088;18.268;2024-01-25T03:03:12;19.77;;;11.07;;
80675;SDS011;70041;46.088;18.268;2024-01-25T03:05:38;22.57;;;11.30;;
80675;SDS011;70041;46.088;18.268;2024-01-25T03:08:03;21.73;;;11.77;;
80675;SDS011;70041;46.088;18.268;2024-01-25T03:10:29;22.57;;;10.97;;
80675;SDS011;70041;46.088;18.268;2024-01-25T03:12:54;24.57;;;10.93;;
80675;SDS011;70041;46.088;18.268;2024-01-25T03:15:20;22.58;;;11.65;;
80675;SDS011;70041;46.088;18.268;2024-01-25T03:17:46;19.67;;;11.97;;
80675;SDS011;70041;46.088;18.268;2024-01-25T03:20:11;22.33;;;12.27;;
80675;SDS011;70041;46.088;18.268;2024-01-25T03:22:37;23.55;;;11.73;;
80675;SDS011;70041;46.088;18.268;2024-01-25T03:25:02;28.87;;;13.50;;
80675;SDS011;70041;46.088;18.268;2024-01-25T03:27:28;22.47;;;12.03;;
80675;SDS011;70041;46.088;18.268;2024-01-25T03:29:53;21.55;;;9.88;;
80675;SDS011;70041;46.088;18.268;2024-01-25T03:32:18;15.65;;;8.80;;
80675;SDS011;70041;46.088;18.268;2024-01-25T03:34:44;19.13;;;10.43;;
80675;SDS011;70041;46.088;18.268;2024-01-25T03:37:09;18.37;;;9.90;;
80675;SDS011;70041;46.088;18.268;2024-01-25T03:39:35;17.23;;;9.55;;
80675;SDS011;70041;46.088;18.268;2024-01-25T03:42:01;23.50;;;10.53;;
80675;SDS011;70041;46.088;18.268;2024-01-25T03:44:26;18.87;;;10.50;;
80675;SDS011;70041;46.088;18.268;2024-01-25T03:46:52;18.60;;;10.25;;
80675;SDS011;70041;46.088;18.268;2024-01-25T03:49:17;18.08;;;10.48;;
80675;SDS011;70041;46.088;18.268;2024-01-25T03:51:44;20.00;;;10.32;;
80675;SDS011;70041;46.088;18.268;2024-01-25T03:54:09;20.77;;;9.70;;
80675;SDS011;70041;46.088;18.268;2024-01-25T03:56:34;18.23;;;10.20;;
80675;SDS011;70041;46.088;18.268;2024-01-25T03:59:00;18.00;;;9.83;;
80675;SDS011;70041;46.088;18.268;2024-01-25T04:01:25;24.27;;;10.73;;
80675;SDS011;70041;46.088;18.268;2024-01-25T04:03:50;20.00;;;10.30;;
80675;SDS011;70041;46.088;18.268;2024-01-25T04:06:16;19.65;;;9.70;;
80675;SDS011;70041;46.088;18.268;2024-01-25T04:08:41;20.53;;;10.27;;
80675;SDS011;70041;46.088;18.268;2024-01-25T04:11:07;20.43;;;11.00;;
80675;SDS011;70041;46.088;18.268;2024-01-25T04:13:34;18.90;;;10.77;;
80675;SDS011;70041;46.088;18.268;2024-01-25T04:16:00;23.15;;;13.02;;
80675;SDS011;70041;46.088;18.268;2024-01-25T04:18:25;23.70;;;12.07;;
80675;SDS011;70041;46.088;18.268;2024-01-25T04:20:51;27.70;;;13.13;;
80675;SDS011;70041;46.088;18.268;2024-01-25T04:23:16;42.17;;;19.10;;
80675;SDS011;70041;46.088;18.268;2024-01-25T04:25:42;43.95;;;19.30;;
80675;SDS011;70041;46.088;18.268;2024-01-25T04:28:07;36.90;;;17.57;;
80675;SDS011;70041;46.088;18.268;2024-01-25T04:30:33;43.97;;;20.87;;
80675;SDS011;70041;46.088;18.268;2024-01-25T04:32:58;47.60;;;23.55;;
80675;SDS011;70041;46.088;18.268;2024-01-25T04:35:24;41.90;;;20.88;;
80675;SDS011;70041;46.088;18.268;2024-01-25T04:37:50;37.73;;;18.83;;
80675;SDS011;70041;46.088;18.268;2024-01-25T04:40:15;38.47;;;16.80;;
80675;SDS011;70041;46.088;18.268;2024-01-25T04:42:40;32.35;;;16.20;;
80675;SDS011;70041;46.088;18.268;2024-01-25T04:45:06;25.00;;;13.33;;
80675;SDS011;70041;46.088;18.268;2024-01-25T04:47:32;29.98;;;13.77;;
80675;SDS011;70041;46.088;18.268;2024-01-25T04:49:57;23.77;;;12.90;;
80675;SDS011;70041;46.088;18.268;2024-01-25T04:52:23;29.07;;;14.60;;
80675;SDS011;70041;46.088;18.268;2024-01-25T04:54:48;22.23;;;12.07;;
80675;SDS011;70041;46.088;18.268;2024-01-25T04:57:14;25.37;;;12.00;;
80675;SDS011;70041;46.088;18.268;2024-01-25T04:59:39;23.70;;;11.93;;
80675;SDS011;70041;46.088;18.268;2024-01-25T05:02:04;27.17;;;12.88;;
80675;SDS011;70041;46.088;18.268;2024-01-25T05:04:30;21.37;;;12.40;;
80675;SDS011;70041;46.088;18.268;2024-01-25T05:06:56;22.95;;;14.00;;
80675;SDS011;70041;46.088;18.268;2024-01-25T05:09:22;23.97;;;13.13;;
80675;SDS011;70041;46.088;18.268;2024-01-25T05:11:47;18.70;;;10.77;;
80675;SDS011;70041;46.088;18.268;2024-01-25T05:14:13;22.27;;;12.07;;
80675;SDS011;70041;46.088;18.268;2024-01-25T05:16:38;26.70;;;13.45;;
80675;SDS011;70041;46.088;18.268;2024-01-25T05:19:03;25.10;;;12.83;;
80675;SDS011;70041;46.088;18.268;2024-01-25T05:21:29;22.87;;;11.57;;
80675;SDS011;70041;46.088;18.268;2024-01-25T05:23:54;43.00;;;16.40;;
80675;SDS011;70041;46.088;18.268;2024-01-25T05:26:20;52.67;;;21.60;;
80675;SDS011;70041;46.088;18.268;2024-01-25T05:28:45;48.65;;;19.25;;
80675;SDS011;70041;46.088;18.268;2024-01-25T05:31:11;58.87;;;23.77;;
80675;SDS011;70041;46.088;18.268;2024-01-25T05:33:40;43.92;;;19.35;;
80675;SDS011;70041;46.088;18.268;2024-01-25T05:36:05;32.97;;;14.20;;
80675;SDS011;70041;46.088;18.268;2024-01-25T05:38:31;34.40;;;14.18;;
80675;SDS011;70041;46.088;18.268;2024-01-25T05:40:57;28.27;;;13.67;;
80675;SDS011;70041;46.088;18.268;2024-01-25T05:43:23;22.40;;;11.20;;
80675;SDS011;70041;46.088;18.268;2024-01-25T05:45:48;22.40;;;11.73;;
80675;SDS011;70041;46.088;18.268;2024-01-25T05:48:14;24.52;;;11.55;;
80675;SDS011;70041;46.088;18.268;2024-01-25T05:50:39;28.90;;;15.00;;
80675;SDS011;70041;46.088;18.268;2024-01-25T05:53:05;55.77;;;22.97;;
80675;SDS011;70041;46.088;18.268;2024-01-25T05:55:30;73.72;;;31.02;;
80675;SDS011;70041;46.088;18.268;2024-01-25T05:57:56;58.27;;;24.53;;
80675;SDS011;70041;46.088;18.268;2024-01-25T06:00:21;45.37;;;20.37;;
80675;SDS011;70041;46.088;18.268;2024-01-25T06:02:47;34.10;;;15.77;;
80675;SDS011;70041;46.088;18.268;2024-01-25T06:05:12;28.98;;;13.20;;
80675;SDS011;70041;46.088;18.268;2024-01-25T06:07:38;28.00;;;14.03;;
80675;SDS011;70041;46.088;18.268;2024-01-25T06:10:03;20.50;;;11.77;;
80675;SDS011;70041;46.088;18.268;2024-01-25T06:12:29;22.13;;;11.45;;
80675;SDS011;70041;46.088;18.268;2024-01-25T06:14:55;18.77;;;11.63;;
80675;SDS011;70041;46.088;18.268;2024-01-25T06:17:20;23.60;;;12.27;;
80675;SDS011;70041;46.088;18.268;2024-01-25T06:19:45;21.23;;;11.23;;
80675;SDS011;70041;46.088;18.268;2024-01-25T06:22:11;23.03;;;12.83;;
80675;SDS011;70041;46.088;18.268;2024-01-25T06:24:37;25.80;;;12.80;;
80675;SDS011;70041;46.088;18.268;2024-01-25T06:27:03;22.73;;;12.88;;
80675;SDS011;70041;46.088;18.268;2024-01-25T06:29:29;26.80;;;14.50;;
80675;SDS011;70041;46.088;18.268;2024-01-25T06:31:54;25.23;;;13.40;;
80675;SDS011;70041;46.088;18.268;2024-01-25T06:34:20;27.63;;;14.15;;
80675;SDS011;70041;46.088;18.268;2024-01-25T06:36:45;27.60;;;14.03;;
80675;SDS011;70041;46.088;18.268;2024-01-25T06:39:11;25.40;;;12.63;;
80675;SDS011;70041;46.088;18.268;2024-01-25T06:41:36;24.75;;;13.07;;
80675;SDS011;70041;46.088;18.268;2024-01-25T06:44:02;24.63;;;13.07;;
80675;SDS011;70041;46.088;18.268;2024-01-25T06:46:27;22.20;;;12.15;;
80675;SDS011;70041;46.088;18.268;2024-01-25T06:48:53;24.80;;;12.15;;
80675;SDS011;70041;46.088;18.268;2024-01-25T06:51:19;23.43;;;12.03;;
80675;SDS011;70041;46.088;18.268;2024-01-25T06:53:44;25.63;;;12.60;;
80675;SDS011;70041;46.088;18.268;2024-01-25T06:56:10;23.63;;;12.60;;
80675;SDS011;70041;46.088;18.268;2024-01-25T06:58:35;21.03;;;12.63;;
80675;SDS011;70041;46.088;18.268;2024-01-25T07:01:01;26.42;;;13.30;;
80675;SDS011;70041;46.088;18.268;2024-01-25T07:03:26;25.17;;;13.63;;
80675;SDS011;70041;46.088;18.268;2024-01-25T07:05:52;28.93;;;14.70;;
80675;SDS011;70041;46.088;18.268;2024-01-25T07:08:17;26.60;;;13.60;;
80675;SDS011;70041;46.088;18.268;2024-01-25T07:10:44;27.02;;;14.30;;
80675;SDS011;70041;46.088;18.268;2024-01-25T07:13:10;28.48;;;14.57;;
80675;SDS011;70041;46.088;18.268;2024-01-25T07:15:35;23.77;;;14.00;;
80675;SDS011;70041;46.088;18.268;2024-01-25T07:18:01;30.87;;;15.40;;
80675;SDS011;70041;46.088;18.268;2024-01-25T07:20:26;29.77;;;15.40;;
80675;SDS011;70041;46.088;18.268;2024-01-25T07:22:52;25.83;;;15.23;;
80675;SDS011;70041;46.088;18.268;2024-01-25T07:25:17;26.37;;;15.17;;
80675;SDS011;70041;46.088;18.268;2024-01-25T07:27:46;26.40;;;15.40;;
80675;SDS011;70041;46.088;18.268;2024-01-25T07:30:12;29.80;;;16.08;;
80675;SDS011;70041;46.088;18.268;2024-01-25T07:32:38;45.38;;;23.02;;
80675;SDS011;70041;46.088;18.268;2024-01-25T07:35:07;46.97;;;21.35;;
80675;SDS011;70041;46.088;18.268;2024-01-25T07:37:32;33.10;;;19.10;;
80675;SDS011;70041;46.088;18.268;2024-01-25T07:39:58;34.17;;;18.75;;
80675;SDS011;70041;46.088;18.268;2024-01-25T07:42:23;30.10;;;16.45;;
80675;SDS011;70041;46.088;18.268;2024-01-25T07:44:49;31.10;;;15.27;;
80675;SDS011;70041;46.088;18.268;2024-01-25T07:47:14;29.70;;;15.83;;
80675;SDS011;70041;46.088;18.268;2024-01-25T07:49:41;32.30;;;16.25;;
80675;SDS011;70041;46.088;18.268;2024-01-25T07:52:06;34.40;;;17.77;;
80675;SDS011;70041;46.088;18.268;2024-01-25T07:54:32;29.97;;;16.13;;
80675;SDS011;70041;46.088;18.268;2024-01-25T07:56:57;29.73;;;17.20;;
80675;SDS011;70041;46.088;18.268;2024-01-25T07:59:23;31.25;;;17.13;;
80675;SDS011;70041;46.088;18.268;2024-01-25T08:01:49;30.97;;;16.57;;
80675;SDS011;70041;46.088;18.268;2024-01-25T08:04:14;32.40;;;16.65;;
80675;SDS011;70041;46.088;18.268;2024-01-25T08:06:39;34.30;;;16.67;;
80675;SDS011;70041;46.088;18.268;2024-01-25T08:09:05;35.43;;;18.23;;
80675;SDS011;70041;46.088;18.268;2024-01-25T08:11:30;37.63;;;19.90;;
80675;SDS011;70041;46.088;18.268;2024-01-25T08:13:56;41.87;;;23.27;;
80675;SDS011;70041;46.088;18.268;2024-01-25T08:16:22;51.92;;;27.75;;
80675;SDS011;70041;46.088;18.268;2024-01-25T08:18:47;43.05;;;24.15;;
80675;SDS011;70041;46.088;18.268;2024-01-25T08:21:13;35.72;;;20.48;;
80675;SDS011;70041;46.088;18.268;2024-01-25T08:23:39;61.38;;;28.05;;
80675;SDS011;70041;46.088;18.268;2024-01-25T08:26:05;73.60;;;30.93;;
80675;SDS011;70041;46.088;18.268;2024-01-25T08:28:35;63.50;;;26.90;;
80675;SDS011;70041;46.088;18.268;2024-01-25T08:31:01;42.10;;;20.33;;
80675;SDS011;70041;46.088;18.268;2024-01-25T08:33:27;31.90;;;17.30;;
80675;SDS011;70041;46.088;18.268;2024-01-25T08:35:52;32.28;;;18.13;;
80675;SDS011;70041;46.088;18.268;2024-01-25T08:38:18;29.87;;;17.67;;
80675;SDS011;70041;46.088;18.268;2024-01-25T08:40:43;31.10;;;17.70;;
80675;SDS011;70041;46.088;18.268;2024-01-25T08:43:09;35.87;;;19.87;;
80675;SDS011;70041;46.088;18.268;2024-01-25T08:45:34;39.57;;;21.93;;
80675;SDS011;70041;46.088;18.268;2024-01-25T08:48:00;33.65;;;17.35;;
80675;SDS011;70041;46.088;18.268;2024-01-25T08:50:25;28.33;;;15.57;;
80675;SDS011;70041;46.088;18.268;2024-01-25T08:52:51;28.45;;;15.63;;
80675;SDS011;70041;46.088;18.268;2024-01-25T08:55:16;37.03;;;20.13;;
80675;SDS011;70041;46.088;18.268;2024-01-25T08:57:42;29.37;;;14.50;;
80675;SDS011;70041;46.088;18.268;2024-01-25T09:00:08;27.07;;;14.50;;
80675;SDS011;70041;46.088;18.268;2024-01-25T09:02:35;23.27;;;14.23;;
80675;SDS011;70041;46.088;18.268;2024-01-25T09:05:01;20.38;;;12.40;;
80675;SDS011;70041;46.088;18.268;2024-01-25T09:07:27;22.90;;;12.00;;
80675;SDS011;70041;46.088;18.268;2024-01-25T09:09:52;20.63;;;10.35;;
80675;SDS011;70041;46.088;18.268;2024-01-25T09:12:18;21.90;;;12.53;;
80675;SDS011;70041;46.088;18.268;2024-01-25T09:14:43;20.70;;;11.60;;
80675;SDS011;70041;46.088;18.268;2024-01-25T09:17:09;21.77;;;11.33;;
80675;SDS011;70041;46.088;18.268;2024-01-25T09:19:34;23.02;;;12.27;;
80675;SDS011;70041;46.088;18.268;2024-01-25T09:22:00;21.23;;;12.37;;
80675;SDS011;70041;46.088;18.268;2024-01-25T09:24:29;23.20;;;12.45;;
80675;SDS011;70041;46.088;18.268;2024-01-25T09:26:55;24.08;;;12.02;;
80675;SDS011;70041;46.088;18.268;2024-01-25T09:29:20;25.70;;;12.87;;
80675;SDS011;70041;46.088;18.268;2024-01-25T09:31:46;23.98;;;12.23;;
80675;SDS011;70041;46.088;18.268;2024-01-25T09:34:11;20.95;;;11.35;;
80675;SDS011;70041;46.088;18.268;2024-01-25T09:36:37;23.17;;;12.27;;
80675;SDS011;70041;46.088;18.268;2024-01-25T09:39:02;21.10;;;12.03;;
80675;SDS011;70041;46.088;18.268;2024-01-25T09:41:29;32.55;;;14.63;;
80675;SDS011;70041;46.088;18.268;2024-01-25T09:43:54;23.20;;;11.47;;
80675;SDS011;70041;46.088;18.268;2024-01-25T09:46:20;19.03;;;10.17;;
80675;SDS011;70041;46.088;18.268;2024-01-25T09:48:46;19.80;;;9.75;;
80675;SDS011;70041;46.088;18.268;2024-01-25T09:51:13;19.58;;;9.15;;
80675;SDS011;70041;46.088;18.268;2024-01-25T09:53:39;20.20;;;10.50;;
80675;SDS011;70041;46.088;18.268;2024-01-25T09:56:07;21.93;;;10.60;;
80675;SDS011;70041;46.088;18.268;2024-01-25T09:58:40;19.35;;;10.02;;
80675;SDS011;70041;46.088;18.268;2024-01-25T10:01:11;23.98;;;11.65;;
80675;SDS011;70041;46.088;18.268;2024-01-25T10:03:38;20.88;;;11.32;;
80675;SDS011;70041;46.088;18.268;2024-01-25T10:06:05;21.42;;;12.85;;
80675;SDS011;70041;46.088;18.268;2024-01-25T10:08:31;23.17;;;11.90;;
80675;SDS011;70041;46.088;18.268;2024-01-25T10:10:57;22.02;;;11.40;;
80675;SDS011;70041;46.088;18.268;2024-01-25T10:13:22;22.93;;;11.77;;
80675;SDS011;70041;46.088;18.268;2024-01-25T10:15:49;23.37;;;11.70;;
80675;SDS011;70041;46.088;18.268;2024-01-25T10:18:14;26.40;;;12.88;;
80675;SDS011;70041;46.088;18.268;2024-01-25T10:20:42;23.40;;;12.43;;
80675;SDS011;70041;46.088;18.268;2024-01-25T10:23:07;22.25;;;12.20;;
80675;SDS011;70041;46.088;18.268;2024-01-25T10:25:36;22.03;;;11.93;;
80675;SDS011;70041;46.088;18.268;2024-01-25T10:28:05;21.58;;;12.05;;
80675;SDS011;70041;46.088;18.268;2024-01-25T10:30:32;20.80;;;11.38;;
80675;SDS011;70041;46.088;18.268;2024-01-25T10:33:01;19.88;;;10.68;;
80675;SDS011;70041;46.088;18.268;2024-01-25T10:35:28;22.83;;;12.05;;
80675;SDS011;70041;46.088;18.268;2024-01-25T10:37:54;21.07;;;11.37;;
80675;SDS011;70041;46.088;18.268;2024-01-25T10:40:20;23.42;;;12.40;;
80675;SDS011;70041;46.088;18.268;2024-01-25T10:42:46;23.70;;;11.60;;
80675;SDS011;70041;46.088;18.268;2024-01-25T10:45:12;24.00;;;12.07;;
80675;SDS011;70041;46.088;18.268;2024-01-25T10:47:38;20.43;;;10.63;;
80675;SDS011;70041;46.088;18.268;2024-01-25T10:50:06;19.20;;;11.05;;
80675;SDS011;70041;46.088;18.268;2024-01-25T10:52:35;20.77;;;11.02;;
80675;SDS011;70041;46.088;18.268;2024-01-25T10:55:03;17.92;;;10.70;;
80675;SDS011;70041;46.088;18.268;2024-01-25T10:57:36;19.88;;;12.18;;
80675;SDS011;70041;46.088;18.268;2024-01-25T11:00:09;20.97;;;10.50;;
80675;SDS011;70041;46.088;18.268;2024-01-25T11:02:35;24.15;;;11.13;;
80675;SDS011;70041;46.088;18.268;2024-01-25T11:05:01;18.10;;;10.48;;
80675;SDS011;70041;46.088;18.268;2024-01-25T11:07:28;20.63;;;10.30;;
80675;SDS011;70041;46.088;18.268;2024-01-25T11:09:54;21.30;;;11.40;;
80675;SDS011;70041;46.088;18.268;2024-01-25T11:12:20;23.33;;;11.48;;
80675;SDS011;70041;46.088;18.268;2024-01-25T11:14:53;21.95;;;11.70;;
80675;SDS011;70041;46.088;18.268;2024-01-25T11:17:22;18.83;;;10.37;;
80675;SDS011;70041;46.088;18.268;2024-01-25T11:19:48;19.55;;;9.45;;
80675;SDS011;70041;46.088;18.268;2024-01-25T11:22:15;12.68;;;5.70;;
80675;SDS011;70041;46.088;18.268;2024-01-25T11:24:41;15.53;;;9.73;;
80675;SDS011;70041;46.088;18.268;2024-01-25T11:27:08;9.95;;;4.80;;
80675;SDS011;70041;46.088;18.268;2024-01-25T11:29:35;14.65;;;7.90;;
80675;SDS011;70041;46.088;18.268;2024-01-25T11:32:00;8.57;;;2.63;;
80675;SDS011;70041;46.088;18.268;2024-01-25T11:34:29;9.35;;;2.08;;
80675;SDS011;70041;46.088;18.268;2024-01-25T11:36:56;7.43;;;2.38;;
80675;SDS011;70041;46.088;18.268;2024-01-25T11:39:22;7.38;;;1.80;;
80675;SDS011;70041;46.088;18.268;2024-01-25T11:41:48;7.05;;;1.50;;
80675;SDS011;70041;46.088;18.268;2024-01-25T11:44:16;6.25;;;1.60;;
80675;SDS011;70041;46.088;18.268;2024-01-25T11:46:41;5.40;;;1.40;;
80675;SDS011;70041;46.088;18.268;2024-01-25T11:49:07;7.17;;;1.57;;
80675;SDS011;70041;46.088;18.268;2024-01-25T11:51:32;8.63;;;1.73;;
80675;SDS011;70041;46.088;18.268;2024-01-25T11:53:58;8.07;;;1.70;;
80675;SDS011;70041;46.088;18.268;2024-01-25T11:56:31;7.45;;;1.77;;
80675;SDS011;70041;46.088;18.268;2024-01-25T11:58:59;7.53;;;1.70;;
80675;SDS011;70041;46.088;18.268;2024-01-25T12:01:25;9.07;;;1.83;;
80675;SDS011;70041;46.088;18.268;2024-01-25T12:03:52;6.93;;;1.88;;
80675;SDS011;70041;46.088;18.268;2024-01-25T12:06:18;7.63;;;1.73;;
80675;SDS011;70041;46.088;18.268;2024-01-25T12:08:44;5.43;;;1.85;;
80675;SDS011;70041;46.088;18.268;2024-01-25T12:11:11;8.20;;;2.20;;
80675;SDS011;70041;46.088;18.268;2024-01-25T12:13:40;10.55;;;2.83;;
80675;SDS011;70041;46.088;18.268;2024-01-25T12:16:08;9.15;;;2.40;;
80675;SDS011;70041;46.088;18.268;2024-01-25T12:18:34;9.68;;;2.30;;
80675;SDS011;70041;46.088;18.268;2024-01-25T12:21:02;9.48;;;2.55;;
80675;SDS011;70041;46.088;18.268;2024-01-25T12:23:32;10.23;;;2.60;;
80675;SDS011;70041;46.088;18.268;2024-01-25T12:26:08;7.55;;;2.40;;
80675;SDS011;70041;46.088;18.268;2024-01-25T12:28:35;10.35;;;2.15;;
80675;SDS011;70041;46.088;18.268;2024-01-25T12:31:05;8.40;;;2.50;;
80675;SDS011;70041;46.088;18.268;2024-01-25T12:33:31;6.38;;;2.28;;
80675;SDS011;70041;46.088;18.268;2024-01-25T12:35:58;6.90;;;2.30;;
80675;SDS011;70041;46.088;18.268;2024-01-25T12:38:23;10.40;;;2.60;;
80675;SDS011;70041;46.088;18.268;2024-01-25T12:40:50;12.05;;;3.00;;
80675;SDS011;70041;46.088;18.268;2024-01-25T12:43:16;7.47;;;2.10;;
80675;SDS011;70041;46.088;18.268;2024-01-25T12:45:42;8.70;;;2.50;;
80675;SDS011;70041;46.088;18.268;2024-01-25T12:48:07;6.75;;;2.60;;
80675;SDS011;70041;46.088;18.268;2024-01-25T12:50:34;8.90;;;2.53;;
80675;SDS011;70041;46.088;18.268;2024-01-25T12:53:00;7.85;;;2.15;;
80675;SDS011;70041;46.088;18.268;2024-01-25T12:55:27;10.20;;;2.58;;
80675;SDS011;70041;46.088;18.268;2024-01-25T12:57:54;7.55;;;2.15;;
80675;SDS011;70041;46.088;18.268;2024-01-25T13:00:19;8.23;;;1.90;;
80675;SDS011;70041;46.088;18.268;2024-01-25T13:02:45;9.05;;;2.03;;
80675;SDS011;70041;46.088;18.268;2024-01-25T13:05:10;6.27;;;2.07;;
80675;SDS011;70041;46.088;18.268;2024-01-25T13:07:35;8.43;;;2.30;;
80675;SDS011;70041;46.088;18.268;2024-01-25T13:10:01;8.13;;;2.23;;
80675;SDS011;70041;46.088;18.268;2024-01-25T13:12:26;12.83;;;2.63;;
80675;SDS011;70041;46.088;18.268;2024-01-25T13:14:52;11.02;;;2.55;;
80675;SDS011;70041;46.088;18.268;2024-01-25T13:17:17;9.63;;;2.20;;
80675;SDS011;70041;46.088;18.268;2024-01-25T13:19:42;7.67;;;1.67;;
80675;SDS011;70041;46.088;18.268;2024-01-25T13:22:08;8.73;;;1.90;;
80675;SDS011;70041;46.088;18.268;2024-01-25T13:24:33;6.73;;;2.10;;
80675;SDS011;70041;46.088;18.268;2024-01-25T13:26:59;9.10;;;1.90;;
80675;SDS011;70041;46.088;18.268;2024-01-25T13:29:24;11.23;;;2.30;;
80675;SDS011;70041;46.088;18.268;2024-01-25T13:31:49;8.67;;;2.37;;
80675;SDS011;70041;46.088;18.268;2024-01-25T13:34:15;15.13;;;1.70;;
80675;SDS011;70041;46.088;18.268;2024-01-25T13:36:40;8.00;;;2.33;;
80675;SDS011;70041;46.088;18.268;2024-01-25T13:39:06;7.28;;;1.95;;
80675;SDS011;70041;46.088;18.268;2024-01-25T13:41:31;6.73;;;1.83;;
80675;SDS011;70041;46.088;18.268;2024-01-25T13:43:56;9.07;;;2.40;;
80675;SDS011;70041;46.088;18.268;2024-01-25T13:46:22;8.13;;;2.40;;
80675;SDS011;70041;46.088;18.268;2024-01-25T13:48:47;7.97;;;2.20;;
80675;SDS011;70041;46.088;18.268;2024-01-25T13:51:13;7.25;;;1.60;;
80675;SDS011;70041;46.088;18.268;2024-01-25T13:53:38;9.13;;;1.90;;
80675;SDS011;70041;46.088;18.268;2024-01-25T13:56:04;9.00;;;2.13;;
80675;SDS011;70041;46.088;18.268;2024-01-25T13:58:29;7.20;;;1.60;;
80675;SDS011;70041;46.088;18.268;2024-01-25T14:00:55;10.60;;;1.90;;
80675;SDS011;70041;46.088;18.268;2024-01-25T14:03:20;5.83;;;1.43;;
80675;SDS011;70041;46.088;18.268;2024-01-25T14:05:45;10.23;;;1.80;;
80675;SDS011;70041;46.088;18.268;2024-01-25T14:08:11;8.90;;;2.08;;